Warrenton, OR

5:18 PM PDT on August 30, 2016 (GMT -0700)
Astoria Regional | | Change Station

Elev 10 ft 46.16 °N, 123.88 °W | Updated 23 minutes ago

Clear
Clear
69 °F
Feels Like 69 °F
N
16
Wind Variable Wind from SW
Gusts 23 mph

Today
High -- | Low -- °F
--% Chance of Precip.
Yesterday
High -- | Low -- °F
Precip. -- in
Pressure 29.99 in
Visibility 10.0 miles
Clouds Clear
Dew Point 53 °F
Humidity 57%
Rainfall 0.00 in
Snow Depth Not available.
6:34 AM 7:56 PM
Waning Crescent, 2% visible
METAR KAST 302355Z AUTO 22014G20KT 10SM CLR 21/12 A2999 RMK AO2 SLP156 T02060117 10206 20183 56004
Pressure 29.99 in
Visibility 10.0 miles
Clouds Clear
Dew Point 53 °F
Humidity 57%
Rainfall 0.00 in
Snow Depth Not available.
6:34 AM 7:56 PM
Waning Crescent, 2% visible
METAR KAST 302355Z AUTO 22014G20KT 10SM CLR 21/12 A2999 RMK AO2 SLP156 T02060117 10206 20183 56004

10-Day Weather Forecast

Almanac

Astronomy

Aug. 30, 2016 Rise Set
Actual Time
Civil Twilight
Nautical Twilight
Astronomical Twilight
Moon
Length of Visible Light
Length of Day
Tomorrow will be .
, % of the Moon is Illuminated

Today's Extremes

State Highs State Lows

Community

WunderPhotos

Upload Photos

1,935,960 photos uploaded!

WunderBlog® & News

Nearby

Air Quality

  Air Quality AQ Index Pollutant
Not available.

Snow Depth

Station Depth Elevation

Earthquake Activity

City Distance Mag. Time & Date
Minimum magnitude displayed is 2.5.

Coastal Water Temperatures

Place Temperature

Stations

Nearby Weather Stations

Station Location Temp. Windchill Dew Point Humidity Wind Precip. Elev Updated Type
                   

Watches & Warnings

There are currently no watches in effect.